createdAt,value
2018-03-25T00:02:08.439Z,31.67
2018-03-25T00:04:36.770Z,35.70
2018-03-25T00:07:05.068Z,31.50
2018-03-25T00:09:33.446Z,34.50
2018-03-25T00:12:01.746Z,33.20
2018-03-25T00:14:30.850Z,35.60
2018-03-25T00:16:59.909Z,30.07
2018-03-25T00:19:28.238Z,32.40
2018-03-25T00:21:56.586Z,29.90
2018-03-25T00:24:25.709Z,35.60
2018-03-25T00:26:54.045Z,30.40
2018-03-25T00:29:22.346Z,31.53
2018-03-25T00:31:50.704Z,31.60
2018-03-25T00:34:19.794Z,32.10
2018-03-25T00:36:48.141Z,33.07
2018-03-25T00:39:16.441Z,30.43
2018-03-25T00:41:45.566Z,32.20
2018-03-25T00:44:14.638Z,31.07
2018-03-25T00:46:42.974Z,32.60
2018-03-25T00:49:11.286Z,31.77
2018-03-25T00:51:39.625Z,32.73
2018-03-25T00:54:07.977Z,30.27
2018-03-25T00:56:36.314Z,34.17
2018-03-25T00:59:04.627Z,31.50
2018-03-25T01:01:32.993Z,33.13
2018-03-25T01:04:02.082Z,30.80
2018-03-25T01:06:30.409Z,30.50
2018-03-25T01:08:58.724Z,30.13
2018-03-25T01:11:27.835Z,29.60
2018-03-25T01:13:56.910Z,30.00
2018-03-25T01:16:26.866Z,29.63
2018-03-25T01:18:55.174Z,33.87
2018-03-25T01:21:23.533Z,30.57
2018-03-25T01:23:51.888Z,33.20
2018-03-25T01:26:20.952Z,32.30
2018-03-25T01:28:50.080Z,31.70
2018-03-25T01:31:19.151Z,31.83
2018-03-25T01:33:47.542Z,35.40
2018-03-25T01:36:16.602Z,36.13
2018-03-25T01:38:44.926Z,33.30
2018-03-25T01:41:13.238Z,32.03
2018-03-25T01:43:41.621Z,33.23
2018-03-25T01:46:09.963Z,32.87
2018-03-25T01:48:38.266Z,31.77
2018-03-25T01:51:06.603Z,31.10
2018-03-25T01:53:35.666Z,31.40
2018-03-25T01:56:04.782Z,33.30
2018-03-25T01:58:33.857Z,32.47
2018-03-25T02:01:02.213Z,32.30
2018-03-25T02:03:30.849Z,30.60
2018-03-25T02:05:59.986Z,32.60
2018-03-25T02:08:28.318Z,34.40
2018-03-25T02:10:57.423Z,34.47
2018-03-25T02:13:25.737Z,30.40
2018-03-25T02:15:54.482Z,30.67
2018-03-25T02:18:23.539Z,32.60
2018-03-25T02:20:51.846Z,33.63
2018-03-25T02:23:20.955Z,34.20
2018-03-25T02:25:49.266Z,34.93
2018-03-25T02:28:17.601Z,32.50
2018-03-25T02:30:46.666Z,31.87
2018-03-25T02:33:15.002Z,31.90
2018-03-25T02:35:43.290Z,34.60
2018-03-25T02:38:11.630Z,33.70
2018-03-25T02:40:39.935Z,34.50
2018-03-25T02:43:08.286Z,36.70
2018-03-25T02:45:36.592Z,34.53
2018-03-25T02:48:04.967Z,36.87
2018-03-25T02:50:33.271Z,36.17
2018-03-25T02:53:01.602Z,34.60
2018-03-25T02:55:29.927Z,34.63
2018-03-25T02:57:58.231Z,35.23
2018-03-25T03:00:26.999Z,36.07
2018-03-25T03:02:55.308Z,36.33
2018-03-25T03:05:24.404Z,38.30
2018-03-25T03:07:53.487Z,34.80
2018-03-25T03:10:22.606Z,35.40
2018-03-25T03:12:50.905Z,38.80
2018-03-25T03:15:19.210Z,36.13
2018-03-25T03:17:47.534Z,34.17
2018-03-25T03:20:15.847Z,34.53
2018-03-25T03:22:44.190Z,36.40
2018-03-25T03:25:12.494Z,33.70
2018-03-25T03:27:40.922Z,37.70
2018-03-25T03:30:10.008Z,37.37
2018-03-25T03:32:38.338Z,34.57
2018-03-25T03:35:06.649Z,35.53
2018-03-25T03:37:34.968Z,35.10
2018-03-25T03:40:03.277Z,36.07
2018-03-25T03:42:31.619Z,36.20
2018-03-25T03:44:59.923Z,34.93
2018-03-25T03:47:28.218Z,35.20
2018-03-25T03:49:56.557Z,34.90
2018-03-25T03:52:24.858Z,35.83
2018-03-25T03:54:53.185Z,35.93
2018-03-25T03:57:21.565Z,35.33
2018-03-25T03:59:50.761Z,33.73
2018-03-25T04:02:19.818Z,34.83
2018-03-25T04:04:48.117Z,37.60
2018-03-25T04:07:16.441Z,34.27
2018-03-25T04:09:44.742Z,39.20
2018-03-25T04:12:13.070Z,36.03
2018-03-25T04:14:41.791Z,33.10
2018-03-25T04:17:10.117Z,35.57
2018-03-25T04:19:39.182Z,34.93
2018-03-25T04:22:07.589Z,36.17
2018-03-25T04:24:36.650Z,35.47
2018-03-25T04:27:05.031Z,35.30
2018-03-25T04:29:33.325Z,36.27
2018-03-25T04:32:01.675Z,36.20
2018-03-25T04:34:29.990Z,33.40
2018-03-25T04:36:59.055Z,37.23
2018-03-25T04:39:27.382Z,35.97
2018-03-25T04:41:55.698Z,32.70
2018-03-25T04:44:24.054Z,35.43
2018-03-25T04:46:52.366Z,34.10
2018-03-25T04:51:55.506Z,39.70
2018-03-25T04:54:23.822Z,37.93
2018-03-25T04:56:52.143Z,37.03
2018-03-25T04:59:20.457Z,36.47
2018-03-25T05:01:48.782Z,104.90
2018-03-25T05:04:17.093Z,38.63
2018-03-25T05:06:46.214Z,37.43
2018-03-25T05:09:14.779Z,41.63
2018-03-25T05:11:43.143Z,36.53
2018-03-25T05:14:12.203Z,35.23
2018-03-25T05:16:40.526Z,37.67
2018-03-25T05:19:08.825Z,37.73
2018-03-25T05:21:37.181Z,39.33
2018-03-25T05:24:05.494Z,37.97
2018-03-25T05:26:33.798Z,46.83
2018-03-25T05:29:03.638Z,40.53
2018-03-25T05:31:31.966Z,39.27
2018-03-25T05:34:00.314Z,40.27
2018-03-25T05:36:28.647Z,39.80
2018-03-25T05:38:56.978Z,38.17
2018-03-25T05:41:25.320Z,42.60
2018-03-25T05:43:53.650Z,38.20
2018-03-25T05:46:21.966Z,42.87
2018-03-25T05:48:50.342Z,40.27
2018-03-25T05:51:19.414Z,41.33
2018-03-25T05:53:47.815Z,38.33
2018-03-25T05:56:16.911Z,40.20
2018-03-25T05:58:45.238Z,38.40
2018-03-25T06:01:13.601Z,37.60
2018-03-25T06:03:41.922Z,36.87
2018-03-25T06:06:10.533Z,38.43
2018-03-25T06:08:38.880Z,40.97
2018-03-25T06:11:07.194Z,39.57
2018-03-25T06:13:35.498Z,39.03
2018-03-25T06:16:03.826Z,36.00
2018-03-25T06:18:32.126Z,41.33
2018-03-25T06:21:01.234Z,39.57
2018-03-25T06:23:29.587Z,40.40
2018-03-25T06:25:58.662Z,43.00
2018-03-25T06:28:27.786Z,40.47
2018-03-25T06:30:56.100Z,39.97
2018-03-25T06:33:24.455Z,39.37
2018-03-25T06:35:53.114Z,36.80
2018-03-25T06:38:22.235Z,38.20
2018-03-25T06:40:50.539Z,39.93
2018-03-25T06:43:18.886Z,39.80
2018-03-25T06:45:47.206Z,37.23
2018-03-25T06:48:15.489Z,40.60
2018-03-25T06:50:45.494Z,40.63
2018-03-25T06:53:15.326Z,41.50
2018-03-25T06:55:45.373Z,41.90
2018-03-25T06:58:15.270Z,37.83
2018-03-25T07:00:45.141Z,38.70
2018-03-25T07:03:14.966Z,37.43
2018-03-25T07:05:44.850Z,39.73
2018-03-25T07:08:14.681Z,39.93
2018-03-25T07:10:44.753Z,38.93
2018-03-25T07:13:14.630Z,37.30
2018-03-25T07:15:44.505Z,37.80
2018-03-25T07:18:14.365Z,40.80
2018-03-25T07:20:44.198Z,38.77
2018-03-25T07:23:14.113Z,36.30
2018-03-25T07:25:43.991Z,38.63
2018-03-25T07:28:13.865Z,37.90
2018-03-25T07:30:43.694Z,39.20
2018-03-25T07:33:13.550Z,35.43
2018-03-25T07:35:43.564Z,38.20
2018-03-25T07:38:13.430Z,40.23
2018-03-25T07:40:43.521Z,35.87
2018-03-25T07:43:13.401Z,36.20
2018-03-25T07:45:43.273Z,38.57
2018-03-25T07:48:13.094Z,39.67
2018-03-25T07:50:42.958Z,40.40
2018-03-25T07:53:12.883Z,39.43
2018-03-25T07:55:42.745Z,39.83
2018-03-25T07:58:12.609Z,37.50
2018-03-25T08:00:42.478Z,37.27
2018-03-25T08:03:12.309Z,39.03
2018-03-25T08:05:42.177Z,36.50
2018-03-25T08:08:12.055Z,37.03
2018-03-25T08:10:42.281Z,37.93
2018-03-25T08:13:12.114Z,41.17
2018-03-25T08:15:41.991Z,35.07
2018-03-25T08:18:11.886Z,41.97
2018-03-25T08:20:41.829Z,38.90
2018-03-25T08:23:12.058Z,41.43
2018-03-25T08:25:41.905Z,40.63
2018-03-25T08:28:11.794Z,40.37
2018-03-25T08:30:41.620Z,40.23
2018-03-25T08:33:11.584Z,38.73
2018-03-25T08:35:41.430Z,35.40
2018-03-25T08:38:11.298Z,39.10
2018-03-25T08:40:41.125Z,42.03
2018-03-25T08:43:11.006Z,37.83
2018-03-25T08:45:40.839Z,39.33
2018-03-25T08:48:10.705Z,41.13
2018-03-25T08:50:40.542Z,51.50
2018-03-25T08:53:10.422Z,35.30
2018-03-25T08:55:40.380Z,35.77
2018-03-25T08:58:10.214Z,35.43
2018-03-25T09:00:40.106Z,35.63
2018-03-25T09:03:09.937Z,38.20
2018-03-25T09:05:39.813Z,36.37
2018-03-25T09:08:09.919Z,34.73
2018-03-25T09:10:39.790Z,33.30
2018-03-25T09:13:09.671Z,35.97
2018-03-25T09:15:39.529Z,35.60
2018-03-25T09:18:09.370Z,31.73
2018-03-25T09:20:39.294Z,34.43
2018-03-25T09:23:09.200Z,38.27
2018-03-25T09:25:37.539Z,36.83
2018-03-25T09:28:05.859Z,33.77
2018-03-25T09:30:34.165Z,33.70
2018-03-25T09:33:02.551Z,30.67
2018-03-25T09:35:30.858Z,33.13
2018-03-25T09:37:59.946Z,34.00
2018-03-25T09:40:28.270Z,36.13
2018-03-25T09:42:58.138Z,34.47
2018-03-25T09:45:26.445Z,30.93
2018-03-25T09:47:54.790Z,34.60
2018-03-25T09:50:23.093Z,31.70
2018-03-25T09:52:51.430Z,30.33
2018-03-25T09:55:20.507Z,31.63
2018-03-25T09:57:48.849Z,28.50
2018-03-25T10:00:22.790Z,29.77
2018-03-25T10:02:51.402Z,26.40
2018-03-25T10:05:20.494Z,28.33
2018-03-25T10:07:49.599Z,25.27
2018-03-25T10:10:17.917Z,28.00
2018-03-25T10:12:46.252Z,25.80
2018-03-25T10:15:14.562Z,28.87
2018-03-25T10:17:42.926Z,27.03
2018-03-25T10:20:11.263Z,25.53
2018-03-25T10:22:40.345Z,23.57
2018-03-25T10:25:08.698Z,23.13
2018-03-25T10:27:37.024Z,23.67
2018-03-25T10:30:06.623Z,23.63
2018-03-25T10:32:35.014Z,25.53
2018-03-25T10:35:04.132Z,24.17
2018-03-25T10:37:33.290Z,25.80
2018-03-25T10:40:01.676Z,24.27
2018-03-25T10:42:30.762Z,22.60
2018-03-25T10:44:59.098Z,22.37
2018-03-25T10:47:27.423Z,26.53
2018-03-25T10:49:56.531Z,23.43
2018-03-25T10:52:24.846Z,23.67
2018-03-25T10:54:53.190Z,25.53
2018-03-25T10:57:21.485Z,26.37
2018-03-25T10:59:49.829Z,25.53
2018-03-25T11:02:18.146Z,25.53
2018-03-25T11:04:46.478Z,26.00
2018-03-25T11:07:15.553Z,28.10
2018-03-25T11:09:43.871Z,25.47
2018-03-25T11:12:12.170Z,26.80
2018-03-25T11:14:40.534Z,30.50
2018-03-25T11:17:08.835Z,27.40
2018-03-25T11:19:37.203Z,30.23
2018-03-25T11:22:05.505Z,27.90
2018-03-25T11:24:33.829Z,32.13
2018-03-25T11:27:02.214Z,31.50
2018-03-25T11:29:30.559Z,30.17
2018-03-25T11:31:58.977Z,28.10
2018-03-25T11:34:27.338Z,30.40
2018-03-25T11:36:55.702Z,26.47
2018-03-25T11:39:24.770Z,27.53
2018-03-25T11:41:53.116Z,26.37
2018-03-25T11:44:21.441Z,27.10
2018-03-25T11:46:50.555Z,25.87
2018-03-25T11:49:18.863Z,24.97
2018-03-25T11:51:47.223Z,25.10
2018-03-25T11:54:15.550Z,25.03
2018-03-25T11:56:44.774Z,26.00
2018-03-25T11:59:13.850Z,27.00
2018-03-25T12:01:42.963Z,25.60
2018-03-25T12:04:11.458Z,25.47
2018-03-25T12:06:40.542Z,23.50
2018-03-25T12:09:09.225Z,73.50
2018-03-25T12:11:38.331Z,26.47
2018-03-25T12:14:06.658Z,22.47
2018-03-25T12:16:36.534Z,21.80
2018-03-25T12:19:04.900Z,22.80
2018-03-25T12:21:33.238Z,21.60
2018-03-25T12:24:02.371Z,23.63
2018-03-25T12:26:31.471Z,24.53
2018-03-25T12:28:59.814Z,23.67
2018-03-25T12:31:28.151Z,25.17
2018-03-25T12:33:56.502Z,23.07
2018-03-25T12:36:24.824Z,21.37
2018-03-25T12:38:53.267Z,23.43
2018-03-25T12:41:21.591Z,20.53
2018-03-25T12:43:49.939Z,24.83
2018-03-25T12:46:18.297Z,25.70
2018-03-25T12:48:46.638Z,24.87
2018-03-25T12:51:15.724Z,19.87
2018-03-25T12:53:44.108Z,24.80
2018-03-25T12:56:12.423Z,35.93
2018-03-25T12:58:40.760Z,22.60
2018-03-25T13:01:09.878Z,21.50
2018-03-25T13:03:38.219Z,22.17
2018-03-25T13:06:06.535Z,19.87
2018-03-25T13:08:34.889Z,20.83
2018-03-25T13:11:03.489Z,22.20
2018-03-25T13:13:32.595Z,21.23
2018-03-25T13:16:00.902Z,22.37
2018-03-25T13:18:29.250Z,20.20
2018-03-25T13:20:57.565Z,21.37
2018-03-25T13:23:25.898Z,22.63
2018-03-25T13:25:54.243Z,24.50
2018-03-25T13:28:23.347Z,21.17
2018-03-25T13:30:51.695Z,23.70
2018-03-25T13:33:20.022Z,23.37
2018-03-25T13:35:49.116Z,22.10
2018-03-25T13:38:18.194Z,24.03
2018-03-25T13:40:47.308Z,21.40
2018-03-25T13:43:15.629Z,22.70
2018-03-25T13:45:44.374Z,23.47
2018-03-25T13:48:12.940Z,23.27
2018-03-25T13:50:42.071Z,23.67
2018-03-25T13:53:10.397Z,24.40
2018-03-25T13:55:38.770Z,21.00
2018-03-25T13:58:07.088Z,20.97
2018-03-25T14:00:35.415Z,24.17
2018-03-25T14:03:04.506Z,20.50
2018-03-25T14:05:32.849Z,20.00
2018-03-25T14:08:01.180Z,18.07
2018-03-25T14:10:29.571Z,20.73
2018-03-25T14:12:58.702Z,20.73
2018-03-25T14:15:27.770Z,21.10
2018-03-25T14:17:56.110Z,20.50
2018-03-25T14:20:25.262Z,20.10
2018-03-25T14:22:53.620Z,21.50
2018-03-25T14:25:21.944Z,20.77
2018-03-25T14:27:50.303Z,20.27
2018-03-25T14:30:18.634Z,23.30
2018-03-25T14:32:47.766Z,22.50
2018-03-25T14:35:16.113Z,22.47
2018-03-25T14:37:44.580Z,23.03
2018-03-25T14:40:14.010Z,21.90
2018-03-25T14:42:42.359Z,22.93
2018-03-25T14:45:10.702Z,23.93
2018-03-25T14:47:39.125Z,21.60
2018-03-25T14:50:08.195Z,21.20
2018-03-25T14:52:36.555Z,21.47
2018-03-25T14:55:04.909Z,20.67
2018-03-25T14:57:33.238Z,24.63
2018-03-25T15:00:01.555Z,31.30
2018-03-25T15:02:29.904Z,24.17
2018-03-25T15:04:58.238Z,22.03
2018-03-25T15:07:26.666Z,20.57
2018-03-25T15:09:55.000Z,21.33
2018-03-25T15:12:23.435Z,21.30
2018-03-25T15:14:51.842Z,22.50
2018-03-25T15:17:20.286Z,17.73
2018-03-25T15:19:49.367Z,22.10
2018-03-25T15:22:18.505Z,23.57
2018-03-25T15:24:46.818Z,18.87
2018-03-25T15:27:15.127Z,21.50
2018-03-25T15:29:43.505Z,21.23
2018-03-25T15:32:12.569Z,19.17
2018-03-25T15:34:42.423Z,22.20
2018-03-25T15:37:10.739Z,24.77
2018-03-25T15:39:39.269Z,21.97
2018-03-25T15:42:08.343Z,22.50
2018-03-25T15:44:36.674Z,22.27
2018-03-25T15:47:04.989Z,21.20
2018-03-25T15:49:33.342Z,21.37
2018-03-25T15:52:01.673Z,23.33
2018-03-25T15:54:30.776Z,22.53
2018-03-25T15:56:59.125Z,23.20
2018-03-25T15:59:27.515Z,20.37
2018-03-25T16:01:55.831Z,19.87
2018-03-25T16:04:24.177Z,23.13
2018-03-25T16:06:53.286Z,20.80
2018-03-25T16:09:21.622Z,21.53
2018-03-25T16:11:49.939Z,20.00
2018-03-25T16:14:18.275Z,22.73
2018-03-25T16:16:47.406Z,20.17
2018-03-25T16:19:16.507Z,21.23
2018-03-25T16:21:45.602Z,21.30
2018-03-25T16:24:13.983Z,20.53
2018-03-25T16:26:42.326Z,21.60
2018-03-25T16:29:11.428Z,23.50
2018-03-25T16:31:40.234Z,25.37
2018-03-25T16:34:08.574Z,20.20
2018-03-25T16:36:36.933Z,21.30
2018-03-25T16:39:05.354Z,22.60
2018-03-25T16:41:33.702Z,22.73
2018-03-25T16:44:02.027Z,19.73
2018-03-25T16:46:31.135Z,24.27
2018-03-25T16:48:59.454Z,23.65
2018-03-25T16:51:27.813Z,22.57
2018-03-25T16:53:56.110Z,19.73
2018-03-25T16:56:24.465Z,22.87
2018-03-25T16:58:53.406Z,22.53
2018-03-25T17:01:21.771Z,24.20
2018-03-25T17:03:50.875Z,23.40
2018-03-25T17:06:20.087Z,20.70
2018-03-25T17:08:48.486Z,19.23
2018-03-25T17:11:16.841Z,21.93
2018-03-25T17:13:45.165Z,18.60
2018-03-25T17:16:13.530Z,24.03
2018-03-25T17:18:41.926Z,31.70
2018-03-25T17:21:10.251Z,30.77
2018-03-25T17:23:39.327Z,23.77
2018-03-25T17:26:07.742Z,24.30
2018-03-25T17:28:36.077Z,24.53
2018-03-25T17:31:04.386Z,21.50
2018-03-25T17:33:32.726Z,24.97
2018-03-25T17:36:01.031Z,26.60
2018-03-25T17:38:29.394Z,29.23
2018-03-25T17:40:58.474Z,26.27
2018-03-25T17:43:26.814Z,30.03
2018-03-25T17:45:55.140Z,35.27
2018-03-25T17:48:24.258Z,34.20
2018-03-25T17:50:52.574Z,27.40
2018-03-25T17:53:20.947Z,28.60
2018-03-25T17:55:49.261Z,28.17
2018-03-25T17:58:17.605Z,33.73
2018-03-25T18:00:45.906Z,30.40
2018-03-25T18:03:14.237Z,29.60
2018-03-25T18:05:42.614Z,26.93
2018-03-25T18:08:10.913Z,45.20
2018-03-25T18:10:39.231Z,30.03
2018-03-25T18:13:07.599Z,29.70
2018-03-25T18:15:36.695Z,24.03
2018-03-25T18:18:05.070Z,25.33
2018-03-25T18:20:33.390Z,25.73
2018-03-25T18:23:01.802Z,26.30
2018-03-25T18:25:30.129Z,24.10
2018-03-25T18:27:58.472Z,25.30
2018-03-25T18:30:26.862Z,28.47
2018-03-25T18:32:55.236Z,25.90
2018-03-25T18:35:23.578Z,23.80
2018-03-25T18:37:51.891Z,23.53
2018-03-25T18:40:20.234Z,20.53
2018-03-25T18:42:48.537Z,23.63
2018-03-25T18:45:17.667Z,24.47
2018-03-25T18:47:46.050Z,22.43
2018-03-25T18:50:14.414Z,23.23
2018-03-25T18:52:42.769Z,26.20
2018-03-25T18:55:11.125Z,30.83
2018-03-25T18:57:39.448Z,51.33
2018-03-25T19:00:08.541Z,29.53
2018-03-25T19:02:36.886Z,28.50
2018-03-25T19:05:05.273Z,27.57
2018-03-25T19:07:34.378Z,24.93
2018-03-25T19:10:03.504Z,31.17
2018-03-25T19:12:31.871Z,25.70
2018-03-25T19:15:00.242Z,27.20
2018-03-25T19:17:29.318Z,25.93
2018-03-25T19:19:57.654Z,26.97
2018-03-25T19:22:25.977Z,27.30
2018-03-25T19:24:55.869Z,29.37
2018-03-25T19:27:24.999Z,28.67
2018-03-25T19:29:53.336Z,30.00
2018-03-25T19:32:21.699Z,30.30
2018-03-25T19:34:50.023Z,28.50
2018-03-25T19:37:18.418Z,31.63
2018-03-25T19:39:46.785Z,28.70
2018-03-25T19:42:15.134Z,31.40
2018-03-25T19:44:43.447Z,31.93
2018-03-25T19:47:12.555Z,28.17
2018-03-25T19:49:41.618Z,33.37
2018-03-25T19:52:09.990Z,31.50
2018-03-25T19:54:39.100Z,30.80
2018-03-25T19:57:08.198Z,33.10
2018-03-25T19:59:37.608Z,28.30
2018-03-25T20:02:05.958Z,27.00
2018-03-25T20:04:34.261Z,27.00
2018-03-25T20:07:02.615Z,32.67
2018-03-25T20:09:30.915Z,29.43
2018-03-25T20:11:59.599Z,26.60
2018-03-25T20:14:27.967Z,31.73
2018-03-25T20:16:57.077Z,28.67
2018-03-25T20:19:25.429Z,30.40
2018-03-25T20:21:54.553Z,32.30
2018-03-25T20:24:23.618Z,32.40
2018-03-25T20:26:52.008Z,31.33
2018-03-25T20:29:20.311Z,29.73
2018-03-25T20:31:48.666Z,28.97
2018-03-25T20:34:17.010Z,30.80
2018-03-25T20:36:45.326Z,29.63
2018-03-25T20:39:14.413Z,32.07
2018-03-25T20:41:43.482Z,29.20
2018-03-25T20:44:12.598Z,29.07
2018-03-25T20:46:41.677Z,30.03
2018-03-25T20:49:10.030Z,30.93
2018-03-25T20:51:38.362Z,27.83
2018-03-25T20:54:07.506Z,28.57
2018-03-25T20:56:36.141Z,29.83
2018-03-25T20:59:05.230Z,31.87
2018-03-25T21:01:33.543Z,29.40
2018-03-25T21:04:01.922Z,32.03
2018-03-25T21:06:30.353Z,35.07
2018-03-25T21:08:58.682Z,31.50
2018-03-25T21:11:26.995Z,29.67
2018-03-25T21:13:55.342Z,32.33
2018-03-25T21:16:23.655Z,30.40
2018-03-25T21:18:52.011Z,33.17
2018-03-25T21:21:20.315Z,29.00
2018-03-25T21:23:49.414Z,29.37
2018-03-25T21:26:17.762Z,30.00
2018-03-25T21:28:46.140Z,34.07
2018-03-25T21:31:14.466Z,33.07
2018-03-25T21:33:43.534Z,31.13
2018-03-25T21:36:12.219Z,30.60
2018-03-25T21:38:40.512Z,32.37
2018-03-25T21:41:09.910Z,31.63
2018-03-25T21:43:38.978Z,29.37
2018-03-25T21:46:07.722Z,36.50
2018-03-25T21:48:36.064Z,31.60
2018-03-25T21:51:04.430Z,30.07
2018-03-25T21:53:33.510Z,28.87
2018-03-25T21:56:02.629Z,30.70
2018-03-25T21:58:31.694Z,26.80
2018-03-25T22:01:00.039Z,30.07
2018-03-25T22:03:28.529Z,30.07
2018-03-25T22:05:56.854Z,28.17
2018-03-25T22:08:25.214Z,29.30
2018-03-25T22:10:54.361Z,29.00
2018-03-25T22:13:22.718Z,29.10
2018-03-25T22:15:51.900Z,28.53
2018-03-25T22:18:31.354Z,25.10
2018-03-25T22:20:59.691Z,28.90
2018-03-25T22:23:29.506Z,29.30
2018-03-25T22:25:57.832Z,28.10
2018-03-25T22:28:26.158Z,29.50
2018-03-25T22:30:55.282Z,30.13
2018-03-25T22:33:23.614Z,29.80
2018-03-25T22:35:52.250Z,31.07
2018-03-25T22:38:21.315Z,29.93
2018-03-25T22:40:49.638Z,29.87
2018-03-25T22:43:17.946Z,26.10
2018-03-25T22:45:46.486Z,27.97
2018-03-25T22:48:15.062Z,24.73
2018-03-25T22:50:43.381Z,28.47
2018-03-25T22:53:11.734Z,28.37
2018-03-25T22:55:40.072Z,25.60
2018-03-25T22:58:08.394Z,26.13
2018-03-25T23:00:36.953Z,24.40
2018-03-25T23:03:09.427Z,25.40
2018-03-25T23:05:38.485Z,26.27
2018-03-25T23:08:06.823Z,23.53
2018-03-25T23:10:35.133Z,26.30
2018-03-25T23:13:03.468Z,23.87
2018-03-25T23:15:31.770Z,25.87
2018-03-25T23:18:00.203Z,26.97
2018-03-25T23:20:29.301Z,21.97
2018-03-25T23:22:57.662Z,23.93
2018-03-25T23:25:25.969Z,24.63
2018-03-25T23:27:54.301Z,25.70
2018-03-25T23:30:22.605Z,26.57
2018-03-25T23:32:51.798Z,24.23
2018-03-25T23:35:20.878Z,23.20
2018-03-25T23:37:49.270Z,24.63
2018-03-25T23:40:17.592Z,24.70
2018-03-25T23:42:45.926Z,24.03
2018-03-25T23:45:14.986Z,24.83
2018-03-25T23:47:43.378Z,25.20
2018-03-25T23:50:12.477Z,22.87
2018-03-25T23:52:41.551Z,23.73
2018-03-25T23:55:09.934Z,25.97
2018-03-25T23:57:39.046Z,24.37
